Time;durP1;ratioP1;P1;durP2;ratioP2;P2;SDS_P1;SDS_P2;PMS_P1;PMS_P2;Temp;Humidity;BMP_temperature;BMP_pressure;BME280_temperature;BME280_humidity;BME280_pressure;Samples;Min_cycle;Max_cycle;Signal;HPM_P1;HPM_P2
2023/03/24 00:00:47;;;;;;;3.70;3.20;;;;;;;13.73;79.79;95939.34;5052572;28;20203;-55
2023/03/24 00:03:15;;;;;;;3.70;3.23;;;;;;;13.81;77.25;95941.94;5053303;28;20361;-55
2023/03/24 00:05:42;;;;;;;3.90;3.60;;;;;;;13.90;77.00;95938.19;5052046;28;20230;-55
2023/03/24 00:08:09;;;;;;;3.57;3.27;;;;;;;13.96;76.49;95926.00;5053405;28;20213;-56
2023/03/24 00:10:36;;;;;;;4.47;3.27;;;;;;;14.06;75.78;95909.81;5052892;28;20232;-55
2023/03/24 00:13:04;;;;;;;3.70;3.40;;;;;;;14.15;74.00;95912.19;5053550;28;20200;-55
2023/03/24 00:15:35;;;;;;;3.70;3.40;;;;;;;14.20;74.01;95908.97;5053050;28;20299;-56
2023/03/24 00:18:01;;;;;;;4.23;3.40;;;;;;;14.27;73.48;95913.38;5052378;28;20749;-55
2023/03/24 00:20:28;;;;;;;4.13;3.73;;;;;;;14.27;73.14;95904.59;5052005;28;20203;-54
2023/03/24 00:22:57;;;;;;;3.90;3.60;;;;;;;14.32;73.03;95915.47;5052975;28;20203;-54
2023/03/24 00:25:27;;;;;;;3.63;3.33;;;;;;;14.30;73.52;95904.22;5053053;28;20218;-55
2023/03/24 00:27:54;;;;;;;4.07;3.67;;;;;;;14.29;73.45;95905.22;5052652;28;20537;-55
2023/03/24 00:30:21;;;;;;;3.67;3.20;;;;;;;14.36;72.63;95912.31;5052061;28;20554;-56
2023/03/24 00:32:48;;;;;;;4.03;3.43;;;;;;;14.34;72.55;95910.84;5052775;28;20211;-56
2023/03/24 00:35:16;;;;;;;5.30;3.33;;;;;;;14.34;73.29;95911.69;5052894;28;20203;-54
2023/03/24 00:37:43;;;;;;;3.53;2.90;;;;;;;14.32;73.46;95903.00;5053396;28;20569;-55
2023/03/24 00:40:13;;;;;;;3.23;3.03;;;;;;;14.26;74.70;95898.44;5052879;28;20211;-55
2023/03/24 00:42:40;;;;;;;6.27;5.20;;;;;;;14.20;76.21;95903.66;5051923;28;20211;-54
2023/03/24 00:45:08;;;;;;;5.15;4.70;;;;;;;14.12;76.61;95898.44;5052675;28;20247;-55
2023/03/24 00:47:36;;;;;;;6.07;4.30;;;;;;;14.05;77.43;95894.84;5052405;28;20199;-55
2023/03/24 00:50:04;;;;;;;3.37;3.03;;;;;;;13.95;78.05;95887.97;5052728;28;20199;-54
2023/03/24 00:52:33;;;;;;;3.43;3.00;;;;;;;13.83;79.71;95878.78;5051785;28;20213;-56
2023/03/24 00:55:01;;;;;;;3.57;3.07;;;;;;;13.72;79.44;95871.25;5052947;28;20253;-56
2023/03/24 00:57:28;;;;;;;3.67;2.80;;;;;;;13.69;79.60;95866.31;5051971;28;20211;-55
2023/03/24 00:59:56;;;;;;;3.50;3.20;;;;;;;13.68;80.01;95862.00;5052442;28;20302;-56
2023/03/24 01:02:24;;;;;;;3.03;2.83;;;;;;;13.61;82.29;95863.72;5052406;28;20635;-56
2023/03/24 01:04:54;;;;;;;4.23;3.13;;;;;;;13.60;82.18;95872.72;5052698;28;20673;-56
2023/03/24 01:07:21;;;;;;;2.97;2.77;;;;;;;13.56;83.33;95868.78;5051872;28;20238;-56
2023/03/24 01:09:56;;;;;;;3.57;3.27;;;;;;;13.55;83.50;95872.41;5056373;28;20207;-55
2023/03/24 01:12:23;;;;;;;4.43;3.40;;;;;;;13.51;83.53;95868.47;5058931;28;20207;-56
2023/03/24 01:14:50;;;;;;;4.40;3.50;;;;;;;13.46;83.81;95878.81;5054643;28;20203;-55
2023/03/24 01:17:18;;;;;;;3.90;3.20;;;;;;;13.37;84.57;95878.06;5051945;28;20207;-55
2023/03/24 01:19:44;;;;;;;3.53;3.17;;;;;;;13.35;84.44;95872.09;5052216;28;20250;-54
2023/03/24 01:22:12;;;;;;;5.27;3.43;;;;;;;13.28;86.04;95873.84;5051829;28;20202;-55
2023/03/24 01:24:39;;;;;;;4.83;3.10;;;;;;;13.27;85.96;95869.50;5051894;28;20219;-55
2023/03/24 01:27:06;;;;;;;5.27;3.50;;;;;;;13.35;85.16;95873.94;5059304;28;21429;-55
2023/03/24 01:29:32;;;;;;;4.03;3.30;;;;;;;13.30;85.00;95881.59;5062520;28;20201;-56
2023/03/24 01:31:59;;;;;;;3.90;3.50;;;;;;;13.30;84.67;95889.56;5059885;28;20221;-54
2023/03/24 01:34:25;;;;;;;4.77;3.60;;;;;;;13.27;84.91;95893.41;5052348;28;20526;-55
2023/03/24 01:36:52;;;;;;;3.87;3.23;;;;;;;13.27;84.94;95890.75;5051318;28;20210;-55
2023/03/24 01:39:20;;;;;;;2.93;2.73;;;;;;;13.26;86.07;95898.88;5050690;28;20207;-55
2023/03/24 01:41:47;;;;;;;5.50;3.33;;;;;;;13.26;86.63;95912.16;5051843;28;20207;-55
2023/03/24 01:44:26;;;;;;;4.13;2.90;;;;;;;13.24;86.43;95901.72;5051542;28;20226;-55
2023/03/24 01:46:53;;;;;;;3.60;3.30;;;;;;;13.19;86.01;95892.63;5051752;28;20623;-55
2023/03/24 01:49:21;;;;;;;3.10;2.90;;;;;;;13.22;85.01;95889.63;5051551;28;20218;-55
2023/03/24 01:51:49;;;;;;;3.40;3.10;;;;;;;13.23;84.88;95878.00;5051804;28;20199;-56
2023/03/24 01:54:20;;;;;;;3.93;3.27;;;;;;;13.23;86.79;95870.88;5059202;28;20195;-56
2023/03/24 01:56:53;;;;;;;3.83;2.90;;;;;;;13.26;86.50;95867.03;5057031;28;20203;-55
2023/03/24 01:59:30;;;;;;;3.13;2.83;;;;;;;13.37;80.64;95869.25;5058296;28;20207;-55
2023/03/24 02:02:02;;;;;;;3.27;2.97;;;;;;;13.38;85.39;95870.91;5051787;28;20207;-55
2023/03/24 02:04:29;;;;;;;3.13;2.87;;;;;;;13.40;84.75;95871.56;5051917;28;20211;-55
2023/03/24 02:06:57;;;;;;;4.97;3.17;;;;;;;13.43;84.06;95884.47;5051074;28;20654;-55
2023/03/24 02:09:25;;;;;;;3.17;2.90;;;;;;;13.43;85.55;95884.47;5051669;28;20531;-56
2023/03/24 02:11:52;;;;;;;2.90;2.70;;;;;;;13.49;83.18;95883.78;5051418;28;20214;-55
2023/03/24 02:14:19;;;;;;;4.13;2.53;;;;;;;13.58;79.39;95871.22;5051468;28;20206;-54
2023/03/24 02:17:05;;;;;;;2.83;2.63;;;;;;;13.77;76.13;95876.03;5051875;28;20292;-56
2023/03/24 02:19:58;;;;;;;3.10;2.90;;;;;;;13.90;75.00;95874.41;5051637;28;20561;-55
2023/03/24 02:23:01;;;;;;;2.90;2.70;;;;;;;14.00;75.76;95870.63;5051728;28;20715;-55
2023/03/24 02:26:20;;;;;;;3.27;2.60;;;;;;;14.05;76.31;95868.25;5052322;28;20222;-55
2023/03/24 02:28:53;;;;;;;3.27;2.83;;;;;;;14.07;76.58;95867.06;5051101;28;20203;-55
2023/03/24 02:31:34;;;;;;;2.70;2.50;;;;;;;14.19;75.07;95840.84;5050587;28;20636;-55
2023/03/24 02:34:30;;;;;;;2.60;2.40;;;;;;;14.19;79.69;95838.19;5052551;28;20631;-55
2023/03/24 02:37:32;;;;;;;3.17;2.80;;;;;;;14.15;85.01;95840.41;5050780;28;20202;-55
2023/03/24 02:40:07;;;;;;;2.80;2.60;;;;;;;14.14;82.26;95820.13;5057899;28;20240;-56
2023/03/24 02:42:42;;;;;;;3.60;2.80;;;;;;;14.12;79.36;95805.38;5054693;28;20206;-56
2023/03/24 02:45:20;;;;;;;3.27;2.40;;;;;;;14.12;80.14;95784.09;5049877;28;20217;-55
2023/03/24 02:47:55;;;;;;;2.50;2.30;;;;;;;14.10;82.41;95796.78;5050849;28;20194;-55
2023/03/24 02:50:27;;;;;;;3.00;2.80;;;;;;;14.07;82.48;95781.16;5050669;28;20205;-55
2023/03/24 02:53:01;;;;;;;2.80;2.60;;;;;;;13.98;80.89;95787.59;5050961;28;20203;-56
2023/03/24 02:55:33;;;;;;;2.30;2.20;;;;;;;14.00;81.27;95774.94;5049634;28;20210;-56
2023/03/24 02:58:02;;;;;;;2.83;2.60;;;;;;;13.95;81.97;95770.19;5051271;28;20207;-56
2023/03/24 03:00:31;;;;;;;3.20;3.00;;;;;;;13.92;83.54;95759.94;5050155;28;20209;-56
2023/03/24 03:03:01;;;;;;;2.97;2.77;;;;;;;13.91;83.92;95760.94;5051011;28;20206;-55
2023/03/24 03:05:32;;;;;;;3.07;2.83;;;;;;;13.85;83.93;95767.81;5050193;28;20223;-56
2023/03/24 03:08:00;;;;;;;3.77;2.93;;;;;;;13.64;87.78;95762.41;5052365;28;20198;-55
2023/03/24 03:10:31;;;;;;;3.20;2.90;;;;;;;13.61;88.35;95776.06;5072425;28;20259;-55
2023/03/24 03:13:00;;;;;;;4.33;3.20;;;;;;;13.63;88.58;95784.69;5075122;28;20239;-56
2023/03/24 03:15:30;;;;;;;4.33;3.63;;;;;;;13.54;90.36;95779.63;5073076;28;20561;-55
2023/03/24 03:18:01;;;;;;;3.80;3.50;;;;;;;13.49;91.60;95795.28;5072493;28;20265;-54
2023/03/24 03:20:33;;;;;;;4.27;3.97;;;;;;;13.54;91.05;95796.38;5053262;28;20318;-55
2023/03/24 03:23:04;;;;;;;4.17;3.87;;;;;;;13.49;91.31;95782.84;5051968;28;20202;-55
2023/03/24 03:25:35;;;;;;;3.70;3.40;;;;;;;13.42;91.84;95779.25;5050169;28;20212;-55
2023/03/24 03:28:03;;;;;;;3.90;3.60;;;;;;;13.36;92.16;95787.94;5050439;28;20207;-55
2023/03/24 03:30:36;;;;;;;3.90;3.43;;;;;;;13.31;93.58;95791.16;5050544;28;20627;-54
2023/03/24 03:33:06;;;;;;;4.10;3.30;;;;;;;13.26;95.00;95782.06;5050660;28;20306;-56
2023/03/24 03:35:35;;;;;;;3.20;3.00;;;;;;;13.24;93.95;95784.09;5049866;28;20199;-55
2023/03/24 03:38:09;;;;;;;2.87;2.67;;;;;;;13.19;93.85;95776.66;5048814;28;20656;-56
2023/03/24 03:40:41;;;;;;;3.30;3.00;;;;;;;13.12;94.62;95769.59;5050166;28;20191;-56
2023/03/24 03:43:09;;;;;;;3.20;3.00;;;;;;;13.04;94.99;95761.69;5051651;28;20290;-56
2023/03/24 03:45:35;;;;;;;3.67;2.57;;;;;;;13.02;96.36;95768.97;5057171;28;20281;-55
2023/03/24 03:48:02;;;;;;;3.37;2.90;;;;;;;12.96;96.92;95763.41;5058149;28;20199;-55
2023/03/24 03:50:28;;;;;;;3.07;2.77;;;;;;;12.88;97.38;95768.78;5053311;28;20203;-54
2023/03/24 03:52:56;;;;;;;2.97;2.43;;;;;;;12.86;99.63;95786.69;5049635;28;20222;-54
2023/03/24 03:55:23;;;;;;;2.47;2.20;;;;;;;12.87;96.43;95798.94;5054043;28;20203;-54
2023/03/24 03:57:50;;;;;;;2.50;2.30;;;;;;;13.05;91.87;95805.78;5053682;28;20203;-54
2023/03/24 04:00:21;;;;;;;3.63;2.43;;;;;;;13.04;91.27;95812.13;5053633;28;20207;-55
2023/03/24 04:02:59;;;;;;;2.87;2.57;;;;;;;13.08;90.45;95805.41;5053966;28;20286;-55
2023/03/24 04:05:28;;;;;;;2.93;2.43;;;;;;;13.07;91.48;95809.09;5053389;28;20225;-55
2023/03/24 04:08:14;;;;;;;3.03;2.73;;;;;;;13.06;91.82;95820.72;5053528;28;20215;-55
2023/03/24 04:10:57;;;;;;;3.27;2.97;;;;;;;13.07;90.57;95801.97;5053040;28;20203;-55
2023/03/24 04:13:31;;;;;;;3.00;2.80;;;;;;;13.10;89.65;95793.66;5053611;28;20633;-54
2023/03/24 04:15:59;;;;;;;3.40;2.60;;;;;;;13.11;89.04;95813.88;5053709;28;20210;-55
2023/03/24 04:18:32;;;;;;;3.57;3.00;;;;;;;13.22;87.81;95812.63;5064557;28;20257;-56
2023/03/24 04:21:27;;;;;;;3.90;2.93;;;;;;;13.21;88.38;95826.94;5068610;28;20214;-56
2023/03/24 04:23:57;;;;;;;2.87;2.60;;;;;;;13.21;88.16;95821.63;5064777;28;20341;-55
2023/03/24 04:26:27;;;;;;;3.17;2.77;;;;;;;13.24;88.83;95826.56;5055120;28;20230;-55
2023/03/24 04:29:03;;;;;;;2.67;2.47;;;;;;;13.25;88.66;95838.84;5053563;28;20554;-55
2023/03/24 04:31:32;;;;;;;2.37;2.27;;;;;;;13.24;88.75;95835.34;5053734;28;20210;-55
2023/03/24 04:34:02;;;;;;;3.20;2.90;;;;;;;13.27;88.03;95839.47;5053357;28;20215;-54
2023/03/24 04:36:33;;;;;;;3.53;3.00;;;;;;;13.29;87.59;95845.41;5053218;28;20334;-55
2023/03/24 04:39:00;;;;;;;3.37;2.97;;;;;;;13.33;86.37;95862.66;5053421;28;20204;-55
2023/03/24 04:41:30;;;;;;;3.37;3.10;;;;;;;13.37;84.50;95858.63;5053638;28;20222;-55
2023/03/24 04:43:59;;;;;;;3.30;2.97;;;;;;;13.42;85.13;95858.94;5053764;28;20542;-55
2023/03/24 04:46:25;;;;;;;3.20;2.90;;;;;;;13.47;84.09;95859.22;5052765;28;20231;-55
2023/03/24 04:48:52;;;;;;;3.40;3.10;;;;;;;13.50;83.61;95850.88;5052968;28;20211;-56
2023/03/24 04:51:27;;;;;;;3.47;3.17;;;;;;;13.62;83.21;95841.47;5052727;28;20210;-56
2023/03/24 04:53:54;;;;;;;3.70;3.07;;;;;;;13.69;82.34;95831.78;5056979;28;20203;-56
2023/03/24 04:56:30;;;;;;;3.63;3.10;;;;;;;13.67;82.90;95851.56;5057410;28;20203;-55
2023/03/24 04:58:58;;;;;;;3.33;3.13;;;;;;;13.74;82.31;95845.34;5052396;28;20260;-55
2023/03/24 05:01:29;;;;;;;4.80;3.20;;;;;;;13.74;82.64;95847.19;5052300;28;20344;-54
2023/03/24 05:03:56;;;;;;;4.30;3.50;;;;;;;13.72;83.40;95831.41;5052478;28;20191;-55
2023/03/24 05:06:22;;;;;;;5.00;3.30;;;;;;;13.83;82.85;95838.09;5050700;28;20679;-55
2023/03/24 05:08:51;;;;;;;3.83;3.30;;;;;;;13.81;83.49;95834.81;5054927;28;20195;-55
2023/03/24 05:11:17;;;;;;;3.90;3.60;;;;;;;13.82;83.64;95845.25;5057089;28;20326;-56
2023/03/24 05:13:45;;;;;;;3.20;3.00;;;;;;;13.85;83.39;95852.06;5055925;28;20203;-56
2023/03/24 05:16:13;;;;;;;3.37;3.07;;;;;;;13.83;84.50;95857.53;5052503;28;20214;-55
2023/03/24 05:18:40;;;;;;;3.90;3.60;;;;;;;13.80;86.15;95860.56;5052173;28;20714;-56
2023/03/24 05:21:07;;;;;;;3.23;3.03;;;;;;;13.83;85.48;95865.50;5052026;28;20207;-55
2023/03/24 05:23:33;;;;;;;3.67;3.37;;;;;;;13.90;84.76;95858.44;5051869;28;20218;-56
2023/03/24 05:26:00;;;;;;;4.93;3.50;;;;;;;13.90;85.37;95862.94;5052591;28;20223;-56
2023/03/24 05:28:26;;;;;;;3.20;3.00;;;;;;;13.90;85.56;95853.13;5052182;28;20203;-56
2023/03/24 05:30:53;;;;;;;3.40;3.20;;;;;;;13.91;85.73;95861.94;5051432;28;20248;-55
2023/03/24 05:33:20;;;;;;;3.53;3.23;;;;;;;14.05;84.47;95857.63;5051202;28;20214;-56
2023/03/24 05:35:47;;;;;;;3.50;3.30;;;;;;;14.04;84.92;95851.47;5051785;28;20199;-55
2023/03/24 05:38:14;;;;;;;3.43;3.07;;;;;;;14.05;85.01;95849.66;5052115;28;20207;-55
2023/03/24 05:40:41;;;;;;;3.70;3.10;;;;;;;14.07;84.96;95855.59;5051453;28;20269;-56
2023/03/24 05:43:08;;;;;;;3.80;3.37;;;;;;;14.10;83.92;95848.09;5051905;28;20207;-55
2023/03/24 05:45:35;;;;;;;3.00;2.80;;;;;;;14.09;84.57;95848.28;5051856;28;20276;-56
2023/03/24 05:48:02;;;;;;;3.40;3.10;;;;;;;14.15;84.21;95860.84;5051939;28;20214;-56
2023/03/24 05:50:30;;;;;;;3.37;3.17;;;;;;;14.19;83.10;95865.59;5051086;28;20214;-56
2023/03/24 05:52:57;;;;;;;3.40;3.10;;;;;;;14.21;83.34;95873.38;5051211;28;20207;-56
2023/03/24 05:55:24;;;;;;;3.67;3.37;;;;;;;14.21;83.72;95876.03;5051795;28;20203;-54
2023/03/24 05:57:50;;;;;;;3.90;3.50;;;;;;;14.26;83.45;95873.66;5051577;28;20207;-57
2023/03/24 06:00:19;;;;;;;3.90;3.57;;;;;;;14.25;82.91;95882.66;5050587;28;20214;-56
2023/03/24 06:02:46;;;;;;;3.10;2.90;;;;;;;14.24;82.46;95886.34;5050680;28;20605;-56
2023/03/24 06:05:13;;;;;;;3.40;3.10;;;;;;;14.28;82.40;95885.75;5050581;28;20593;-55
2023/03/24 06:07:41;;;;;;;3.43;3.20;;;;;;;14.32;83.05;95891.53;5051584;28;20221;-55
2023/03/24 06:10:10;;;;;;;3.37;3.10;;;;;;;14.31;83.07;95903.22;5050939;28;20314;-56
2023/03/24 06:12:37;;;;;;;3.30;2.93;;;;;;;14.27;84.38;95893.94;5050935;28;20548;-55
2023/03/24 06:15:04;;;;;;;3.17;2.97;;;;;;;14.21;86.02;95881.38;5051235;28;20199;-56
2023/03/24 06:17:31;;;;;;;3.78;3.47;;;;;;;14.26;83.32;95900.25;5050876;28;20225;-56
2023/03/24 06:20:03;;;;;;;3.30;3.00;;;;;;;14.26;83.55;95910.91;5052401;28;20237;-57
2023/03/24 06:22:31;;;;;;;4.07;3.70;;;;;;;14.21;85.06;95913.28;5053298;28;20213;-56
2023/03/24 06:25:01;;;;;;;3.70;3.40;;;;;;;14.20;83.75;95914.31;5053718;28;20203;-55
2023/03/24 06:27:28;;;;;;;3.40;3.10;;;;;;;14.23;84.25;95922.75;5053294;28;20203;-56
2023/03/24 06:29:55;;;;;;;2.97;2.77;;;;;;;14.23;84.44;95914.75;5054381;28;20203;-54
2023/03/24 06:32:22;;;;;;;3.37;3.10;;;;;;;14.22;84.43;95922.91;5051902;28;20199;-58
2023/03/24 06:34:48;;;;;;;3.23;2.93;;;;;;;14.21;83.87;95930.06;5052744;28;20636;-54
2023/03/24 06:37:15;;;;;;;3.80;3.13;;;;;;;14.15;86.04;95925.47;5060383;28;20207;-56
2023/03/24 06:39:41;;;;;;;5.27;3.40;;;;;;;14.17;87.42;95927.97;5062539;28;20203;-57
2023/03/24 06:42:09;;;;;;;5.07;3.10;;;;;;;14.20;86.39;95924.94;5061370;28;20203;-55
2023/03/24 06:44:36;;;;;;;3.27;3.07;;;;;;;14.21;87.13;95929.22;5060825;28;20252;-56
2023/03/24 06:47:02;;;;;;;3.37;3.17;;;;;;;14.21;88.05;95926.56;5058746;28;20231;-56
2023/03/24 06:49:29;;;;;;;3.43;3.10;;;;;;;14.19;88.08;95939.22;5055669;28;20199;-54
2023/03/24 06:51:56;;;;;;;3.63;3.20;;;;;;;14.19;87.40;95933.91;5050178;28;20211;-55
2023/03/24 06:54:22;;;;;;;2.88;2.67;;;;;;;14.17;88.81;95939.41;5050631;28;20211;-54
2023/03/24 06:56:49;;;;;;;3.20;3.00;;;;;;;14.18;89.32;95941.06;5051206;28;20205;-55
2023/03/24 06:59:16;;;;;;;3.00;2.80;;;;;;;14.12;90.10;95936.47;5049509;28;20628;-55
2023/03/24 07:01:43;;;;;;;3.60;3.30;;;;;;;14.13;89.02;95950.59;5050037;28;20199;-55
2023/03/24 07:04:10;;;;;;;4.65;3.33;;;;;;;14.05;90.14;95945.34;5050702;28;20206;-55
2023/03/24 07:06:37;;;;;;;3.57;3.27;;;;;;;14.04;90.74;95957.81;5049465;28;20254;-55
2023/03/24 07:09:05;;;;;;;3.40;3.10;;;;;;;14.07;89.41;95961.94;5050096;28;20214;-55
2023/03/24 07:11:32;;;;;;;3.57;3.27;;;;;;;14.05;89.89;95970.13;5050124;28;20210;-54
2023/03/24 07:13:58;;;;;;;3.50;3.20;;;;;;;14.05;90.77;95970.13;5050357;28;20211;-55
2023/03/24 07:16:26;;;;;;;3.60;3.30;;;;;;;14.03;91.49;95966.00;5049664;28;20286;-56
2023/03/24 07:18:52;;;;;;;3.80;3.27;;;;;;;14.08;91.29;95979.56;5047853;28;20238;-55
2023/03/24 07:21:19;;;;;;;3.50;3.20;;;;;;;14.04;91.27;95984.41;5050224;28;20261;-54
2023/03/24 07:23:45;;;;;;;5.00;3.30;;;;;;;14.06;91.15;95995.72;5050374;28;20601;-54
2023/03/24 07:26:12;;;;;;;3.70;3.40;;;;;;;14.06;93.27;95995.72;5050417;28;20230;-54
2023/03/24 07:28:38;;;;;;;3.70;3.40;;;;;;;14.14;92.35;96002.75;5051658;28;20215;-56
2023/03/24 07:31:09;;;;;;;4.20;3.20;;;;;;;14.06;93.76;96011.66;5053011;28;20207;-56
2023/03/24 07:33:37;;;;;;;5.10;3.03;;;;;;;14.04;92.79;96016.31;5053089;28;20203;-56
2023/03/24 07:36:05;;;;;;;7.07;3.47;;;;;;;13.99;93.64;96023.19;5053285;28;20257;-56
2023/03/24 07:38:33;;;;;;;4.63;4.10;;;;;;;13.96;93.95;96022.53;5053491;28;20264;-54
2023/03/24 07:40:59;;;;;;;4.70;3.43;;;;;;;13.97;95.88;96015.38;5052652;28;20218;-55
2023/03/24 07:43:26;;;;;;;3.50;3.20;;;;;;;13.94;95.92;96021.88;5053692;28;20527;-54
2023/03/24 07:45:52;;;;;;;3.47;3.17;;;;;;;14.03;94.02;96024.47;5053229;28;20227;-55
2023/03/24 07:48:19;;;;;;;4.20;3.80;;;;;;;14.03;93.99;96021.81;5054416;28;20199;-55
2023/03/24 07:50:47;;;;;;;5.13;3.60;;;;;;;14.02;95.09;96022.81;5054662;28;20211;-54
2023/03/24 07:53:17;;;;;;;3.50;3.20;;;;;;;13.98;95.39;96018.88;5052070;28;20195;-54
2023/03/24 07:55:43;;;;;;;6.27;3.60;;;;;;;14.01;95.08;96026.47;5052929;28;20184;-55
2023/03/24 07:58:10;;;;;;;4.77;3.73;;;;;;;14.03;97.33;96024.47;5052901;28;21422;-55
2023/03/24 08:00:37;;;;;;;3.60;3.20;;;;;;;14.05;95.32;96023.28;5051849;28;20211;-54
2023/03/24 08:03:04;;;;;;;3.73;3.43;;;;;;;14.08;95.36;96017.59;5051464;28;20199;-55
2023/03/24 08:05:30;;;;;;;3.70;3.40;;;;;;;14.12;94.31;96029.53;5053486;28;20603;-55
2023/03/24 08:07:59;;;;;;;3.88;3.58;;;;;;;14.11;94.69;96019.91;5052877;28;20207;-54
2023/03/24 08:10:28;;;;;;;3.95;3.40;;;;;;;14.17;93.79;96011.19;5052535;28;20213;-55
2023/03/24 08:12:55;;;;;;;3.77;3.53;;;;;;;14.16;94.35;95998.09;5052588;28;20203;-55
2023/03/24 08:15:22;;;;;;;3.40;3.20;;;;;;;14.27;93.73;95989.69;5050907;28;20215;-55
2023/03/24 08:17:49;;;;;;;3.50;3.20;;;;;;;14.26;92.86;95988.03;5052155;28;20294;-55
2023/03/24 08:20:18;;;;;;;3.87;3.57;;;;;;;14.25;93.61;95970.41;5052507;28;20297;-55
2023/03/24 08:22:48;;;;;;;4.33;3.93;;;;;;;14.37;94.00;96000.91;5052499;28;20663;-54
2023/03/24 08:25:17;;;;;;;3.50;3.20;;;;;;;14.30;96.58;96005.28;5053567;28;20558;-55
2023/03/24 08:27:45;;;;;;;3.80;3.50;;;;;;;14.29;97.93;96004.44;5053282;28;20203;-54
2023/03/24 08:30:15;;;;;;;3.40;3.20;;;;;;;14.33;94.51;96018.22;5053124;28;20207;-55
2023/03/24 08:32:44;;;;;;;4.07;3.30;;;;;;;14.32;94.89;96035.16;5050682;28;20234;-56
2023/03/24 08:35:11;;;;;;;3.70;3.50;;;;;;;14.41;95.70;96026.16;5050359;28;20265;-55
2023/03/24 08:37:37;;;;;;;6.15;3.55;;;;;;;14.33;95.27;96026.19;5053481;28;20202;-55
2023/03/24 08:40:05;;;;;;;3.73;3.40;;;;;;;14.41;94.29;96023.47;5052330;28;20203;-55
2023/03/24 08:42:33;;;;;;;3.40;3.07;;;;;;;14.50;94.01;96032.19;5052932;28;20203;-55
2023/03/24 08:45:00;;;;;;;2.93;2.73;;;;;;;14.53;92.73;96037.97;5051876;28;20689;-53
2023/03/24 08:47:26;;;;;;;3.60;3.30;;;;;;;14.60;93.06;96043.38;5051886;28;20223;-54
2023/03/24 08:49:56;;;;;;;3.80;3.30;;;;;;;14.64;95.16;96040.19;5052359;28;20195;-55
2023/03/24 08:52:24;;;;;;;3.05;2.85;;;;;;;14.72;94.05;96042.78;5051873;28;20249;-55
2023/03/24 08:54:51;;;;;;;3.67;3.37;;;;;;;14.76;93.02;96033.41;5051966;28;20225;-55
2023/03/24 08:57:18;;;;;;;4.67;3.70;;;;;;;14.75;93.75;96038.91;5051501;28;20667;-55
2023/03/24 08:59:46;;;;;;;3.57;3.27;;;;;;;14.83;93.81;96036.16;5051850;28;20223;-56
2023/03/24 09:02:13;;;;;;;3.58;3.28;;;;;;;14.87;93.04;96034.78;5064147;28;20211;-55
2023/03/24 09:04:41;;;;;;;3.78;3.47;;;;;;;15.06;92.18;96033.38;5055795;28;20180;-54
2023/03/24 09:07:07;;;;;;;3.83;3.53;;;;;;;15.33;91.73;96024.72;5072016;28;20246;-56
2023/03/24 09:09:33;;;;;;;3.75;3.45;;;;;;;15.69;89.90;96040.75;5069322;28;20208;-56
2023/03/24 09:12:00;;;;;;;3.75;3.55;;;;;;;15.87;90.49;96039.25;5060823;28;20211;-55
2023/03/24 09:14:26;;;;;;;4.30;3.85;;;;;;;16.23;87.34;96043.69;5052866;28;20206;-54
2023/03/24 09:16:55;;;;;;;4.20;3.80;;;;;;;16.13;86.51;96044.03;5054331;28;20210;-54
2023/03/24 09:19:21;;;;;;;4.53;4.10;;;;;;;16.12;87.15;96046.91;5054282;28;20289;-54
2023/03/24 09:21:49;;;;;;;3.90;3.60;;;;;;;16.15;84.73;96046.50;5052424;28;20211;-55
2023/03/24 09:24:16;;;;;;;4.20;3.80;;;;;;;15.94;85.57;96042.81;5052363;28;20203;-55
2023/03/24 09:26:42;;;;;;;4.28;3.88;;;;;;;15.79;86.92;96038.56;5052356;28;20572;-54
2023/03/24 09:29:09;;;;;;;5.03;4.35;;;;;;;15.63;87.48;96047.63;5052311;28;20211;-54
2023/03/24 09:31:35;;;;;;;4.55;4.20;;;;;;;15.55;87.13;96044.28;5050916;28;20207;-54
2023/03/24 09:34:03;;;;;;;4.57;4.18;;;;;;;15.36;89.86;96054.47;5051081;28;20564;-55
2023/03/24 09:36:31;;;;;;;4.90;4.40;;;;;;;15.28;90.24;96059.06;5051574;28;20203;-54
2023/03/24 09:38:57;;;;;;;4.43;4.03;;;;;;;15.14;91.32;96065.25;5051569;28;20207;-54
2023/03/24 09:41:27;;;;;;;4.68;4.28;;;;;;;14.92;93.48;96075.81;5050508;28;20222;-55
2023/03/24 09:43:56;;;;;;;4.80;4.07;;;;;;;14.91;93.48;96066.16;5049976;28;20222;-55
2023/03/24 09:46:27;;;;;;;4.60;4.20;;;;;;;14.84;94.38;96073.22;5050153;28;20261;-55
2023/03/24 09:48:55;;;;;;;3.90;3.60;;;;;;;14.78;94.08;96068.66;5051931;28;20207;-54
2023/03/24 09:51:24;;;;;;;6.68;5.30;;;;;;;14.75;95.71;96079.66;5049378;28;20552;-55
2023/03/24 09:54:00;;;;;;;4.90;4.50;;;;;;;14.70;95.18;96075.91;5050193;28;21475;-55
2023/03/24 09:56:28;;;;;;;4.00;3.70;;;;;;;14.72;95.54;96077.38;5050660;28;20203;-54
2023/03/24 09:59:02;;;;;;;6.13;5.40;;;;;;;14.60;96.32;96081.47;5051876;28;20191;-55
2023/03/24 10:01:29;;;;;;;4.68;4.25;;;;;;;14.57;96.46;96081.84;5051322;28;20208;-55
2023/03/24 10:03:57;;;;;;;4.90;4.20;;;;;;;14.53;97.25;96080.56;5049723;28;20207;-56
2023/03/24 10:06:26;;;;;;;5.63;4.75;;;;;;;14.40;98.97;96083.84;5049815;28;20227;-55
2023/03/24 10:09:04;;;;;;;4.67;4.27;;;;;;;14.34;100.00;96071.28;5033302;28;20620;-54
2023/03/24 10:11:37;;;;;;;4.72;4.32;;;;;;;14.24;100.00;96075.16;5049942;28;20658;-54
2023/03/24 10:14:12;;;;;;;5.15;4.15;;;;;;;14.29;100.00;96076.25;5050158;28;20209;-55
2023/03/24 10:16:44;;;;;;;5.90;4.63;;;;;;;14.28;100.00;96087.06;5050006;28;20202;-54
2023/03/24 10:19:20;;;;;;;5.57;5.07;;;;;;;14.38;100.00;96077.06;5049139;28;20242;-55
2023/03/24 10:21:55;;;;;;;5.25;4.85;;;;;;;14.47;100.00;96073.31;5050990;28;20233;-54
2023/03/24 10:24:27;;;;;;;4.73;4.33;;;;;;;14.55;100.00;96078.56;5050260;28;20214;-55
2023/03/24 10:26:59;;;;;;;5.72;4.45;;;;;;;14.66;100.00;96080.78;5049881;28;20868;-55
2023/03/24 10:29:29;;;;;;;4.85;4.40;;;;;;;14.72;100.00;96084.53;5049873;28;20203;-55
2023/03/24 10:31:59;;;;;;;5.38;4.88;;;;;;;14.91;100.00;96073.34;5050002;28;20209;-55
2023/03/24 10:34:29;;;;;;;5.93;5.00;;;;;;;15.00;100.00;96071.41;5049770;28;20203;-53
2023/03/24 10:36:58;;;;;;;4.63;4.23;;;;;;;15.17;100.00;96072.84;5033246;28;20314;-54
2023/03/24 10:39:25;;;;;;;5.18;4.78;;;;;;;15.24;100.00;96057.78;5048672;28;20238;-55
2023/03/24 10:41:52;;;;;;;7.38;4.72;;;;;;;15.20;99.19;96056.50;5049268;28;20214;-55
2023/03/24 10:44:20;;;;;;;5.18;4.40;;;;;;;15.21;99.30;96064.31;5050440;28;20207;-55
2023/03/24 10:46:48;;;;;;;4.55;4.25;;;;;;;15.23;99.24;96056.97;5049986;28;20233;-55
2023/03/24 10:49:16;;;;;;;4.63;4.22;;;;;;;15.25;99.68;96054.13;5049409;28;20269;-55
2023/03/24 10:51:46;;;;;;;5.20;4.70;;;;;;;15.28;98.92;96051.09;5050233;28;20218;-55
2023/03/24 10:54:17;;;;;;;5.25;4.75;;;;;;;15.24;97.44;96050.63;5050526;28;20211;-55
2023/03/24 10:56:45;;;;;;;4.57;4.28;;;;;;;15.24;95.47;96049.81;5051017;28;20218;-54
2023/03/24 10:59:19;;;;;;;4.63;4.22;;;;;;;15.17;95.33;96064.88;5050941;28;20294;-55
2023/03/24 11:01:46;;;;;;;5.47;5.07;;;;;;;14.92;95.47;96064.34;5050234;28;20203;-55
2023/03/24 11:04:15;;;;;;;5.13;4.28;;;;;;;14.84;96.38;96072.44;5054919;28;20217;-54
2023/03/24 11:06:54;;;;;;;5.30;3.73;;;;;;;14.74;96.83;96079.84;5054065;28;20245;-55
2023/03/24 11:09:22;;;;;;;4.73;4.20;;;;;;;14.61;99.83;96085.78;5053831;28;20210;-55
2023/03/24 11:11:51;;;;;;;6.88;4.55;;;;;;;14.57;100.00;96087.16;5054036;28;20211;-54
2023/03/24 11:14:22;;;;;;;5.65;4.60;;;;;;;14.43;100.00;96087.97;5054146;28;20203;-54
2023/03/24 11:16:49;;;;;;;4.68;4.28;;;;;;;14.34;100.00;96081.06;5053331;28;20649;-55
2023/03/24 11:19:20;;;;;;;4.93;4.43;;;;;;;14.29;100.00;96078.09;5054795;28;20597;-54
2023/03/24 11:21:49;;;;;;;4.53;4.23;;;;;;;14.30;100.00;96085.06;5054196;28;20658;-55
2023/03/24 11:24:18;;;;;;;4.40;4.00;;;;;;;14.22;100.00;96091.28;5060389;28;20206;-54
2023/03/24 11:26:47;;;;;;;4.50;4.13;;;;;;;14.20;100.00;96095.97;5066175;28;20234;-55
2023/03/24 11:29:15;;;;;;;4.77;4.37;;;;;;;14.19;100.00;96082.81;5068687;28;20210;-55
2023/03/24 11:31:53;;;;;;;4.70;4.30;;;;;;;14.17;100.00;96077.69;5063316;28;20222;-54
2023/03/24 11:34:23;;;;;;;4.97;4.45;;;;;;;14.21;100.00;96086.13;5055869;28;20198;-54
2023/03/24 11:36:51;;;;;;;4.70;4.30;;;;;;;14.30;100.00;96090.38;5054435;28;20512;-54
2023/03/24 11:39:20;;;;;;;4.88;4.47;;;;;;;14.33;100.00;96090.03;5054565;28;20210;-55
2023/03/24 11:42:01;;;;;;;5.57;5.00;;;;;;;14.29;100.00;96080.75;5054355;28;20214;-55